createdAt,value
2023-03-11T00:00:49.458Z,9.57
2023-03-11T00:04:08.506Z,9.58
2023-03-11T00:07:24.788Z,9.59
2023-03-11T00:10:45.475Z,9.64
2023-03-11T00:14:01.447Z,9.66
2023-03-11T00:17:19.266Z,9.69
2023-03-11T00:20:38.632Z,9.69
2023-03-11T00:23:52.934Z,9.70
2023-03-11T00:27:11.123Z,9.69
2023-03-11T00:30:30.289Z,9.69
2023-03-11T00:33:47.508Z,9.73
2023-03-11T00:37:03.496Z,9.71
2023-03-11T00:40:23.763Z,9.69
2023-03-11T00:43:39.944Z,9.69
2023-03-11T00:46:57.745Z,9.69
2023-03-11T00:50:22.418Z,9.69
2023-03-11T00:53:38.418Z,9.69
2023-03-11T00:56:54.628Z,9.64
2023-03-11T01:00:12.491Z,9.61
2023-03-11T01:03:28.574Z,9.55
2023-03-11T01:06:45.760Z,9.53
2023-03-11T01:10:02.135Z,9.51
2023-03-11T01:13:18.275Z,9.53
2023-03-11T01:16:34.553Z,9.55
2023-03-11T01:19:52.982Z,9.55
2023-03-11T01:23:11.166Z,9.58
2023-03-11T01:26:28.798Z,9.59
2023-03-11T01:29:45.222Z,9.53
2023-03-11T01:33:03.299Z,9.51
2023-03-11T01:36:21.406Z,9.53
2023-03-11T01:39:37.809Z,9.56
2023-03-11T01:42:54.012Z,9.52
2023-03-11T01:46:26.285Z,9.60
2023-03-11T01:49:43.804Z,9.63
2023-03-11T01:52:59.912Z,9.61
2023-03-11T01:56:17.115Z,9.62
2023-03-11T01:59:36.721Z,9.57
2023-03-11T02:03:00.381Z,9.55
2023-03-11T02:06:22.379Z,9.50
2023-03-11T02:09:39.207Z,9.52
2023-03-11T02:12:57.137Z,9.54
2023-03-11T02:16:16.139Z,9.40
2023-03-11T02:19:39.472Z,9.47
2023-03-11T02:22:58.128Z,9.41
2023-03-11T02:26:21.345Z,9.44
2023-03-11T02:29:40.173Z,9.39
2023-03-11T02:32:57.559Z,9.38
2023-03-11T02:36:17.636Z,9.34
2023-03-11T02:39:43.677Z,9.32
2023-03-11T02:43:04.357Z,9.27
2023-03-11T02:46:22.265Z,9.27
2023-03-11T02:49:39.517Z,9.29
2023-03-11T02:52:57.751Z,9.26
2023-03-11T02:56:14.538Z,9.15
2023-03-11T02:59:31.338Z,9.04
2023-03-11T03:02:49.929Z,9.06
2023-03-11T03:06:06.504Z,9.05
2023-03-11T03:09:22.882Z,9.01
2023-03-11T03:12:39.046Z,8.96
2023-03-11T03:15:57.005Z,8.88
2023-03-11T03:19:14.582Z,8.78
2023-03-11T03:22:31.057Z,8.74
2023-03-11T03:25:49.433Z,8.63
2023-03-11T03:29:06.047Z,8.54
2023-03-11T03:32:22.368Z,8.57
2023-03-11T03:35:39.384Z,8.43
2023-03-11T03:39:03.265Z,8.43
2023-03-11T03:42:21.015Z,8.38
2023-03-11T03:45:37.463Z,8.37
2023-03-11T03:48:53.729Z,8.37
2023-03-11T03:52:11.277Z,8.39
2023-03-11T03:55:28.717Z,8.23
2023-03-11T03:58:45.731Z,8.13
2023-03-11T04:02:02.061Z,8.14
2023-03-11T04:05:19.609Z,8.16
2023-03-11T04:08:35.869Z,8.16
2023-03-11T04:11:51.944Z,8.05
2023-03-11T04:15:11.307Z,8.15
2023-03-11T04:18:28.224Z,8.07
2023-03-11T04:21:44.877Z,8.01
2023-03-11T04:25:01.526Z,7.96
2023-03-11T04:28:19.390Z,8.01
2023-03-11T04:31:35.727Z,7.99
2023-03-11T04:34:53.603Z,7.97
2023-03-11T04:38:09.981Z,8.00
2023-03-11T04:41:26.503Z,8.00
2023-03-11T04:44:45.072Z,7.92
2023-03-11T04:48:01.346Z,7.96
2023-03-11T04:51:18.723Z,7.97
2023-03-11T04:54:34.829Z,7.89
2023-03-11T04:57:51.604Z,7.89
2023-03-11T05:01:07.797Z,7.93
2023-03-11T05:04:23.930Z,7.93
2023-03-11T05:07:40.592Z,7.75
2023-03-11T05:10:58.935Z,7.52
2023-03-11T05:14:16.427Z,7.43
2023-03-11T05:17:32.892Z,7.37
2023-03-11T05:20:49.209Z,7.25
2023-03-11T05:24:09.398Z,6.99
2023-03-11T05:27:23.356Z,6.85
2023-03-11T05:30:43.552Z,6.85
2023-03-11T05:33:59.707Z,6.54
2023-03-11T05:37:16.919Z,6.68
2023-03-11T05:40:34.519Z,6.61
2023-03-11T05:43:53.076Z,6.62
2023-03-11T05:47:09.816Z,6.50
2023-03-11T05:50:26.436Z,6.35
2023-03-11T05:53:43.175Z,6.31
2023-03-11T05:56:59.446Z,6.29
2023-03-11T06:00:22.281Z,6.23
2023-03-11T06:03:39.728Z,6.07
2023-03-11T06:06:56.003Z,6.22
2023-03-11T06:10:17.844Z,6.23
2023-03-11T06:13:34.695Z,5.96
2023-03-11T06:16:51.788Z,5.74
2023-03-11T06:20:10.256Z,5.61
2023-03-11T06:23:26.474Z,5.61
2023-03-11T06:26:44.890Z,5.44
2023-03-11T06:30:03.400Z,5.38
2023-03-11T06:33:21.162Z,5.23
2023-03-11T06:36:37.887Z,5.18
2023-03-11T06:39:55.978Z,5.12
2023-03-11T06:43:12.227Z,4.97
2023-03-11T06:46:30.308Z,4.97
2023-03-11T06:49:46.766Z,4.77
2023-03-11T06:53:06.850Z,4.61
2023-03-11T06:56:24.629Z,4.73
2023-03-11T06:59:48.235Z,4.91
2023-03-11T07:03:04.838Z,4.91
2023-03-11T07:06:25.184Z,4.92
2023-03-11T07:09:43.097Z,4.63
2023-03-11T07:13:00.873Z,4.75
2023-03-11T07:16:21.486Z,4.69
2023-03-11T07:19:38.180Z,4.72
2023-03-11T07:22:54.356Z,4.70
2023-03-11T07:26:10.840Z,4.62
2023-03-11T07:29:26.878Z,4.57
2023-03-11T07:32:43.413Z,4.42
2023-03-11T07:36:00.100Z,4.35
2023-03-11T07:39:20.184Z,4.20
2023-03-11T07:42:36.496Z,4.08
2023-03-11T07:45:53.793Z,4.03
2023-03-11T07:49:10.838Z,4.01
2023-03-11T07:52:27.013Z,4.02
2023-03-11T07:55:43.853Z,3.95
2023-03-11T07:59:00.537Z,3.98
2023-03-11T08:02:17.443Z,3.76
2023-03-11T08:05:34.862Z,3.87
2023-03-11T08:08:52.860Z,3.89
2023-03-11T08:12:09.194Z,3.70
2023-03-11T08:15:25.587Z,3.84
2023-03-11T08:18:42.292Z,3.81
2023-03-11T08:21:58.624Z,3.74
2023-03-11T08:25:16.259Z,3.61
2023-03-11T08:28:32.332Z,3.72
2023-03-11T08:31:48.449Z,3.76
2023-03-11T08:35:04.881Z,3.75
2023-03-11T08:38:23.789Z,3.86
2023-03-11T08:41:42.720Z,3.79
2023-03-11T08:44:59.318Z,3.81
2023-03-11T08:48:21.702Z,3.79
2023-03-11T08:51:40.454Z,3.97
2023-03-11T08:54:56.886Z,3.98
2023-03-11T08:58:13.262Z,3.92
2023-03-11T09:01:30.367Z,3.67
2023-03-11T09:04:46.663Z,3.71
2023-03-11T09:08:06.336Z,3.73
2023-03-11T09:11:23.755Z,3.96
2023-03-11T09:14:40.250Z,3.83
2023-03-11T09:17:57.495Z,3.92
2023-03-11T09:21:26.110Z,3.87
2023-03-11T09:24:44.265Z,4.17
2023-03-11T09:28:00.316Z,4.15
2023-03-11T09:31:17.306Z,4.15
2023-03-11T09:34:36.306Z,4.13
2023-03-11T09:37:52.549Z,4.08
2023-03-11T09:41:14.162Z,4.14
2023-03-11T09:44:38.048Z,4.35
2023-03-11T09:48:11.177Z,4.18
2023-03-11T09:51:31.616Z,4.33
2023-03-11T09:54:53.021Z,4.18
2023-03-11T09:58:16.415Z,3.87
2023-03-11T10:01:36.698Z,4.06
2023-03-11T10:04:57.840Z,3.95
2023-03-11T10:08:21.194Z,4.02
2023-03-11T10:11:52.172Z,3.94
2023-03-11T10:15:28.725Z,3.98
2023-03-11T10:19:03.171Z,3.66
2023-03-11T10:22:26.780Z,3.81
2023-03-11T10:25:51.408Z,3.64
2023-03-11T10:29:12.921Z,3.76
2023-03-11T10:32:36.834Z,3.68
2023-03-11T10:35:57.530Z,3.75
2023-03-11T10:39:15.856Z,3.75
2023-03-11T10:42:35.307Z,3.65
2023-03-11T10:45:51.517Z,3.42
2023-03-11T10:49:07.565Z,3.50
2023-03-11T10:52:24.734Z,3.55
2023-03-11T10:55:41.591Z,3.29
2023-03-11T10:59:00.331Z,3.24
2023-03-11T11:02:33.366Z,3.30
2023-03-11T11:05:49.560Z,3.10
2023-03-11T11:09:25.108Z,3.01
2023-03-11T11:12:41.849Z,3.11
2023-03-11T11:16:07.756Z,3.12
2023-03-11T11:19:24.233Z,2.83
2023-03-11T11:22:40.512Z,2.65
2023-03-11T11:26:05.771Z,2.75
2023-03-11T11:29:25.335Z,2.85
2023-03-11T11:32:41.750Z,2.51
2023-03-11T11:36:02.880Z,2.57
2023-03-11T11:39:25.311Z,2.34
2023-03-11T11:42:42.521Z,2.39
2023-03-11T11:46:05.315Z,2.34
2023-03-11T11:49:26.852Z,2.32
2023-03-11T11:52:48.736Z,2.21
2023-03-11T11:56:05.126Z,2.17
2023-03-11T11:59:26.927Z,2.24
2023-03-11T12:02:55.418Z,2.21
2023-03-11T12:06:16.364Z,2.20
2023-03-11T12:09:42.238Z,2.11
2023-03-11T12:13:21.227Z,2.10
2023-03-11T12:16:48.381Z,2.10
2023-03-11T12:20:12.161Z,2.08
2023-03-11T12:23:37.735Z,2.02
2023-03-11T12:26:58.402Z,1.93
2023-03-11T12:30:22.872Z,1.85
2023-03-11T12:33:43.496Z,1.80
2023-03-11T12:37:03.058Z,1.84
2023-03-11T12:41:13.185Z,1.95
2023-03-11T12:44:37.756Z,1.94
2023-03-11T12:47:53.871Z,2.02
2023-03-11T12:51:14.487Z,1.88
2023-03-11T12:54:40.289Z,1.88
2023-03-11T12:58:07.075Z,1.93
2023-03-11T13:01:51.706Z,1.93
2023-03-11T13:05:18.616Z,1.92
2023-03-11T13:08:37.781Z,1.85
2023-03-11T13:11:56.375Z,1.72
2023-03-11T13:15:50.490Z,1.73
2023-03-11T13:19:46.613Z,1.71
2023-03-11T13:23:41.626Z,1.69
2023-03-11T13:27:04.605Z,1.68
2023-03-11T13:30:29.262Z,1.59
2023-03-11T13:33:58.063Z,1.52
2023-03-11T13:37:27.456Z,1.43
2023-03-11T13:40:43.769Z,1.48
2023-03-11T13:44:07.052Z,1.54
2023-03-11T13:47:26.939Z,1.48
2023-03-11T13:50:48.871Z,1.34
2023-03-11T13:54:08.903Z,1.25
2023-03-11T13:57:35.545Z,1.33
2023-03-11T14:00:59.464Z,1.41
2023-03-11T14:04:19.927Z,1.45
2023-03-11T14:07:41.027Z,1.47
2023-03-11T14:11:04.590Z,1.50
2023-03-11T14:14:40.973Z,1.40
2023-03-11T14:17:58.650Z,1.34
2023-03-11T14:21:21.457Z,1.41
2023-03-11T14:24:39.436Z,1.41
2023-03-11T14:28:04.880Z,1.42
2023-03-11T14:31:39.150Z,1.41
2023-03-11T14:34:55.433Z,1.38
2023-03-11T14:38:20.639Z,1.45
2023-03-11T14:41:36.972Z,1.40
2023-03-11T14:44:56.941Z,1.41
2023-03-11T14:48:20.554Z,1.47
2023-03-11T14:51:39.370Z,1.50
2023-03-11T14:54:59.578Z,1.55
2023-03-11T14:58:22.093Z,1.58
2023-03-11T15:01:41.795Z,1.59
2023-03-11T15:05:00.649Z,1.57
2023-03-11T15:08:19.754Z,1.62
2023-03-11T15:11:39.113Z,1.56
2023-03-11T15:15:00.743Z,1.46
2023-03-11T15:18:32.802Z,1.31
2023-03-11T15:21:56.053Z,1.22
2023-03-11T15:25:22.975Z,1.21
2023-03-11T15:28:42.478Z,1.20
2023-03-11T15:31:57.844Z,1.20
2023-03-11T15:35:27.473Z,1.11
2023-03-11T15:38:44.104Z,1.01
2023-03-11T15:42:08.587Z,1.04
2023-03-11T15:45:28.154Z,1.00
2023-03-11T15:48:45.252Z,0.82
2023-03-11T15:52:05.749Z,0.90
2023-03-11T15:55:22.583Z,0.97
2023-03-11T15:58:41.225Z,0.98
2023-03-11T16:01:57.678Z,0.96
2023-03-11T16:05:24.088Z,1.03
2023-03-11T16:08:43.697Z,1.08
2023-03-11T16:12:02.277Z,1.06
2023-03-11T16:15:29.413Z,1.10
2023-03-11T16:18:46.847Z,1.15
2023-03-11T16:22:03.088Z,0.98
2023-03-11T16:25:30.937Z,1.03
2023-03-11T16:28:47.261Z,1.07
2023-03-11T16:32:04.638Z,1.06
2023-03-11T16:35:22.082Z,1.03
2023-03-11T16:38:41.277Z,1.08
2023-03-11T16:41:57.481Z,1.10
2023-03-11T16:45:15.967Z,1.11
2023-03-11T16:48:32.832Z,1.11
2023-03-11T16:51:49.392Z,1.16
2023-03-11T16:55:05.609Z,1.04
2023-03-11T16:58:25.004Z,1.08
2023-03-11T17:01:39.933Z,1.04
2023-03-11T17:04:56.564Z,0.98
2023-03-11T17:08:13.632Z,1.04
2023-03-11T17:11:33.909Z,1.09
2023-03-11T17:14:50.744Z,1.06
2023-03-11T17:18:07.218Z,1.04
2023-03-11T17:21:25.017Z,1.06
2023-03-11T17:24:42.403Z,1.02
2023-03-11T17:27:58.681Z,0.91
2023-03-11T17:31:19.843Z,0.94
2023-03-11T17:34:36.803Z,0.94
2023-03-11T17:37:52.873Z,0.88
2023-03-11T17:41:13.866Z,0.88
2023-03-11T17:44:37.903Z,0.90
2023-03-11T17:47:48.265Z,0.82
2023-03-11T17:51:05.682Z,0.83
2023-03-11T17:54:22.079Z,0.88
2023-03-11T17:57:45.002Z,0.85
2023-03-11T18:00:58.249Z,0.92
2023-03-11T18:04:16.354Z,0.88
2023-03-11T18:07:32.983Z,0.89
2023-03-11T18:10:49.484Z,0.89
2023-03-11T18:14:07.978Z,0.86
2023-03-11T18:17:24.960Z,0.86
2023-03-11T18:20:41.229Z,0.77
2023-03-11T18:24:00.181Z,0.70
2023-03-11T18:27:17.358Z,0.67
2023-03-11T18:30:33.822Z,0.67
2023-03-11T18:33:54.367Z,0.67
2023-03-11T18:37:10.882Z,0.69
2023-03-11T18:40:28.680Z,0.64
2023-03-11T18:43:45.178Z,0.67
2023-03-11T18:47:01.539Z,0.63
2023-03-11T18:50:19.625Z,0.71
2023-03-11T18:53:36.319Z,0.65
2023-03-11T18:56:52.449Z,0.68
2023-03-11T19:00:09.394Z,0.68
2023-03-11T19:03:25.842Z,0.72
2023-03-11T19:06:42.840Z,0.68
2023-03-11T19:09:59.780Z,0.67
2023-03-11T19:13:18.944Z,0.71
2023-03-11T19:16:33.404Z,0.62
2023-03-11T19:19:50.032Z,0.67
2023-03-11T19:23:06.336Z,0.74
2023-03-11T19:26:33.815Z,0.74
2023-03-11T19:29:42.862Z,0.77
2023-03-11T19:32:59.271Z,0.64
2023-03-11T19:36:17.875Z,0.67
2023-03-11T19:39:34.142Z,0.70
2023-03-11T19:42:50.955Z,0.68
2023-03-11T19:46:07.586Z,0.73
2023-03-11T19:49:24.102Z,0.77
2023-03-11T19:52:40.659Z,0.78
2023-03-11T19:56:00.189Z,0.77
2023-03-11T19:59:16.775Z,0.73
2023-03-11T20:02:33.039Z,0.66
2023-03-11T20:05:51.710Z,0.73
2023-03-11T20:09:08.515Z,0.73
2023-03-11T20:12:24.998Z,0.74
2023-03-11T20:15:41.358Z,0.74
2023-03-11T20:19:00.141Z,0.63
2023-03-11T20:22:16.422Z,0.71
2023-03-11T20:25:35.632Z,0.64
2023-03-11T20:28:51.964Z,0.64
2023-03-11T20:32:08.688Z,0.58
2023-03-11T20:35:25.637Z,0.55
2023-03-11T20:38:42.688Z,0.55
2023-03-11T20:41:59.402Z,0.57
2023-03-11T20:45:20.521Z,0.51
2023-03-11T20:48:37.635Z,0.49
2023-03-11T20:51:53.994Z,0.42
2023-03-11T20:55:11.827Z,0.42
2023-03-11T20:58:28.027Z,0.38
2023-03-11T21:01:46.625Z,0.29
2023-03-11T21:05:03.808Z,0.19
2023-03-11T21:08:20.161Z,0.19
2023-03-11T21:11:36.720Z,0.19
2023-03-11T21:14:53.022Z,0.08
2023-03-11T21:18:09.455Z,0.13
2023-03-11T21:21:27.341Z,0.08
2023-03-11T21:24:46.833Z,-0.03
2023-03-11T21:28:00.851Z,0.03
2023-03-11T21:31:20.014Z,-0.10
2023-03-11T21:34:34.040Z,-0.03
2023-03-11T21:37:49.978Z,-0.06
2023-03-11T21:41:15.400Z,-0.04
2023-03-11T21:44:32.342Z,-0.02
2023-03-11T21:47:49.052Z,-0.03
2023-03-11T21:51:05.624Z,-0.08
2023-03-11T21:54:21.763Z,-0.06
2023-03-11T21:57:38.201Z,-0.08
2023-03-11T22:00:55.290Z,-0.09
2023-03-11T22:04:12.420Z,0.02
2023-03-11T22:07:28.874Z,0.02
2023-03-11T22:10:48.081Z,0.07
2023-03-11T22:14:06.951Z,0.02
2023-03-11T22:17:23.226Z,-0.01
2023-03-11T22:20:39.664Z,0.01
2023-03-11T22:23:56.098Z,0.13
2023-03-11T22:27:12.902Z,0.10
2023-03-11T22:30:29.321Z,0.09
2023-03-11T22:33:45.914Z,0.11
2023-03-11T22:37:02.649Z,0.20
2023-03-11T22:40:20.733Z,0.17
2023-03-11T22:43:36.982Z,0.20
2023-03-11T22:46:54.792Z,0.09
2023-03-11T22:50:12.207Z,0.13
2023-03-11T22:53:28.377Z,0.14
2023-03-11T22:56:44.736Z,0.20
2023-03-11T23:00:01.110Z,0.19
2023-03-11T23:03:18.520Z,0.14
2023-03-11T23:06:35.164Z,0.16
2023-03-11T23:09:53.321Z,0.20
2023-03-11T23:13:09.599Z,0.14
2023-03-11T23:16:29.136Z,0.21
2023-03-11T23:19:45.941Z,0.14
2023-03-11T23:23:02.035Z,0.26
2023-03-11T23:26:19.802Z,0.27
2023-03-11T23:29:36.005Z,0.31
2023-03-11T23:32:55.110Z,0.30
2023-03-11T23:36:14.189Z,0.33
2023-03-11T23:39:30.641Z,0.32
2023-03-11T23:42:46.702Z,0.24
2023-03-11T23:46:03.066Z,0.33
2023-03-11T23:49:19.461Z,0.30
2023-03-11T23:52:36.217Z,0.31
2023-03-11T23:55:52.794Z,0.29
2023-03-11T23:59:09.112Z,0.27
